Ponca City, Oklahoma
Current Conditions -  °F | °C
As of 4:53 AM on Friday 31 Oct 2014 (Local Time) from KPNC Reporting Station
Clear Clear  
Wind Chill: 38°   Ceiling: Unl
Heat Index: 46°   Visibility: 10mi
Dew Point: 39°   Wind: 20mph
Humidity: 76%   Direction: 360°N
Pressure: 30.33"   Gusts: NA
Location:  36.7°N, 97.08°W
Report Text: KPNC 310953Z AUTO 36017KT 10SM CLR 08/04 A3033 RMK AO2 SLP266 T00780039 $
Loading
Personal Weather Stations






























Interactive Weather Map
Tropical Storm Tracking
New forecast layout! Learn more

10-Day Weather Forecast

Advertisements
Track Severe Weather on mobile